Time;durP1;ratioP1;P1;durP2;ratioP2;P2;SDS_P1;SDS_P2;PMS_P1;PMS_P2;Temp;Humidity;BMP_temperature;BMP_pressure;BME280_temperature;BME280_humidity;BME280_pressure;Samples;Min_cycle;Max_cycle;Signal;HPM_P1;HPM_P2
2023/02/25 00:00:43;;;;;;;;;;;;;;;;;;5094707;28;19962;-87
2023/02/25 00:03:09;;;;;;;;;;;;;;;;;;5093218;28;19923;-87
2023/02/25 00:05:37;;;;;;;;;;;;;;;;;;5107069;28;19926;-87
2023/02/25 00:08:03;;;;;;;;;;;;;;;;;;5135256;28;19900;-87
2023/02/25 00:10:28;;;;;;;;;;;;;;;;;;5114087;28;19916;-87
2023/02/25 00:12:54;;;;;;;;;;;;;;;;;;5118057;28;19920;-87
2023/02/25 00:15:19;;;;;;;;;;;;;;;;;;5111231;28;19916;-89
2023/02/25 00:17:45;;;;;;;;;;;;;;;;;;5093362;28;19923;-88
2023/02/25 00:20:12;;;;;;;;;;;;;;;;;;5111647;28;19924;-89
2023/02/25 00:22:38;;;;;;;;;;;;;;;;;;5098558;28;19924;-88
2023/02/25 00:25:03;;;;;;;;;;;;;;;;;;5098210;28;19924;-88
2023/02/25 00:27:30;;;;;;;;;;;;;;;;;;5098090;28;19977;-87
2023/02/25 00:29:55;;;;;;;;;;;;;;;;;;5098209;28;20371;-87
2023/02/25 00:32:21;;;;;;;;;;;;;;;;;;5098104;28;19916;-88
2023/02/25 00:34:46;;;;;;;;;;;;;;;;;;5113855;28;19916;-88
2023/02/25 00:37:12;;;;;;;;;;;;;;;;;;5098103;28;20003;-89
2023/02/25 00:39:43;;;;;;;;;;;;;;;;;;5097957;28;20015;-88
2023/02/25 00:42:13;;;;;;;;;;;;;;;;;;5097964;28;19916;-89
2023/02/25 00:44:38;;;;;;;;;;;;;;;;;;5096845;28;20274;-89
2023/02/25 00:47:04;;;;;;;;;;;;;;;;;;5115326;27;20010;-89
2023/02/25 00:49:30;;;;;;;;;;;;;;;;;;5120035;27;19965;-88
2023/02/25 00:51:55;;;;;;;;;;;;;;;;;;5120178;27;20005;-89
2023/02/25 00:54:21;;;;;;;;;;;;;;;;;;5138396;27;19911;-89
2023/02/25 00:56:46;;;;;;;;;;;;;;;;;;5120161;27;19942;-89
2023/02/25 00:59:12;;;;;;;;;;;;;;;;;;5120031;27;20056;-88
2023/02/25 01:01:38;;;;;;;;;;;;;;;;;;5119899;27;19956;-88
2023/02/25 01:04:04;;;;;;;;;;;;;;;;;;5120011;27;20366;-90
2023/02/25 01:06:30;;;;;;;;;;;;;;;;;;5138313;27;19912;-89
2023/02/25 01:08:56;;;;;;;;;;;;;;;;;;5119685;27;19923;-88
2023/02/25 01:11:27;;;;;;;;;;;;;;;;;;5138137;27;19915;-90
2023/02/25 01:13:55;;;;;;;;;;;;;;;;;;5138404;27;19919;-88
2023/02/25 01:16:22;;;;;;;;;;;;;;;;;;5119602;27;20077;-88
2023/02/25 01:18:50;;;;;;;;;;;;;;;;;;5119647;27;19919;-89
2023/02/25 01:21:17;;;;;;;;;;;;;;;;;;5138008;27;19960;-88
2023/02/25 01:23:44;;;;;;;;;;;;;;;;;;5138027;27;19922;-89
2023/02/25 01:26:09;;;;;;;;;;;;;;;;;;5119370;27;19919;-90
2023/02/25 01:28:35;;;;;;;;;;;;;;;;;;5119365;27;20006;-90
2023/02/25 01:31:00;;;;;;;;;;;;;;;;;;5137699;27;19926;-88
2023/02/25 01:33:25;;;;;;;;;;;;;;;;;;5118549;27;19923;-88
2023/02/25 01:35:51;;;;;;;;;;;;;;;;;;5137821;27;20263;-88
2023/02/25 01:38:16;;;;;;;;;;;;;;;;;;5137785;27;19915;-88
2023/02/25 01:40:41;;;;;;;;;;;;;;;;;;5138252;27;19922;-88
2023/02/25 01:43:11;;;;;;;;;;;;;;;;;;5137527;27;19916;-88
2023/02/25 01:45:41;;;;;;;;;;;;;;;;;;5137586;27;19916;-88
2023/02/25 01:48:17;;;;;;;;;;;;;;;;;;5137194;27;19974;-89
2023/02/25 01:50:47;;;;;;;;;;;;;;;;;;5137820;27;19919;-89
2023/02/25 01:53:14;;;;;;;;;;;;;;;;;;5118980;27;20398;-89
2023/02/25 01:55:40;;;;;;;;;;;;;;;;;;5137479;27;19922;-89
2023/02/25 01:58:08;;;;;;;;;;;;;;;;;;5137356;27;19916;-90
2023/02/25 02:00:34;;;;;;;;;;;;;;;;;;5137234;27;19915;-88
2023/02/25 02:03:00;;;;;;;;;;;;;;;;;;5137257;27;19919;-90
2023/02/25 02:05:32;;;;;;;;;;;;;;;;;;5118838;27;19923;-87
2023/02/25 02:07:58;;;;;;;;;;;;;;;;;;5137311;27;20010;-89
2023/02/25 02:10:24;;;;;;;;;;;;;;;;;;5137005;27;19919;-88
2023/02/25 02:12:49;;;;;;;;;;;;;;;;;;5137221;27;20362;-89
2023/02/25 02:15:15;;;;;;;;;;;;;;;;;;5136873;27;19915;-89
2023/02/25 02:17:52;;;;;;;;;;;;;;;;;;5137123;27;19912;-89
2023/02/25 02:20:29;;;;;;;;;;;;;;;;;;5136794;27;19919;-89
2023/02/25 02:23:10;;;;;;;;;;;;;;;;;;5118336;27;19915;-89
2023/02/25 02:25:35;;;;;;;;;;;;;;;;;;5136850;27;19930;-88
2023/02/25 02:28:19;;;;;;;;;;;;;;;;;;5136609;27;19915;-88
2023/02/25 02:31:07;;;;;;;;;;;;;;;;;;5136600;27;19934;-88
2023/02/25 02:33:41;;;;;;;;;;;;;;;;;;5136745;27;20273;-89
2023/02/25 02:36:10;;;;;;;;;;;;;;;;;;5117976;27;19916;-89
2023/02/25 02:38:55;;;;;;;;;;;;;;;;;;5136383;27;19939;-88
2023/02/25 02:41:50;;;;;;;;;;;;;;;;;;5136467;27;19912;-88
2023/02/25 02:44:34;;;;;;;;;;;;;;;;;;5033494;28;19972;-88
2023/02/25 02:47:03;;;;;;;;;;;;;;;;;;5033029;28;19929;-88
2023/02/25 02:49:28;;;;;;;;;;;;;;;;;;5016657;28;19959;-88
2023/02/25 02:51:58;;;;;;;;;;;;;;;;;;5016494;28;19921;-88
2023/02/25 02:54:25;;;;;;;;;;;;;;;;;;5016370;28;19913;-88
2023/02/25 02:56:53;;;;;;;;;;;;;;;;;;5032908;28;19924;-88
2023/02/25 02:59:31;;;;;;;;;;;;;;;;;;5032838;28;19914;-88
2023/02/25 03:01:59;;;;;;;;;;;;;;;;;;5016424;28;19917;-89
2023/02/25 03:04:26;;;;;;;;;;;;;;;;;;5033077;28;20324;-89
2023/02/25 03:06:55;;;;;;;;;;;;;;;;;;5016085;28;19921;-88
2023/02/25 03:09:24;;;;;;;;;;;;;;;;;;5015720;28;19953;-88
2023/02/25 03:11:49;;;;;;;;;;;;;;;;;;5032629;28;19917;-89
2023/02/25 03:14:15;;;;;;;;;;;;;;;;;;5016112;28;20337;-88
2023/02/25 03:16:43;;;;;;;;;;;;;;;;;;5032453;28;20507;-88
2023/02/25 03:19:09;;;;;;;;;;;;;;;;;;5015512;28;20008;-88
2023/02/25 03:21:37;;;;;;;;;;;;;;;;;;5106174;27;20427;-88
2023/02/25 03:24:04;;;;;;;;;;;;;;;;;;5135528;27;19916;-88
2023/02/25 03:26:31;;;;;;;;;;;;;;;;;;5135561;27;19923;-88
2023/02/25 03:28:56;;;;;;;;;;;;;;;;;;5135390;27;19919;-88
2023/02/25 03:31:33;;;;;;;;;;;;;;;;;;5135408;27;19923;-87
2023/02/25 03:34:02;;;;;;;;;;;;;;;;;;5117083;27;19972;-88
2023/02/25 03:36:33;;;;;;;;;;;;;;;;;;5116926;27;20288;-88
2023/02/25 03:39:01;;;;;;;;;;;;;;;;;;5135563;27;19915;-89
2023/02/25 03:41:30;;;;;;;;;;;;;;;;;;5135263;27;19912;-89
2023/02/25 03:43:57;;;;;;;;;;;;;;;;;;5135477;27;19916;-89
2023/02/25 03:46:23;;;;;;;;;;;;;;;;;;5134912;27;19919;-89
2023/02/25 03:48:50;;;;;;;;;;;;;;;;;;5116457;27;20382;-88
2023/02/25 03:51:17;;;;;;;;;;;;;;;;;;5134726;27;19969;-88
2023/02/25 03:53:43;;;;;;;;;;;;;;;;;;5116664;28;20006;-88
2023/02/25 03:56:09;;;;;;;;;;;;;;;;;;5116205;27;20405;-89
2023/02/25 03:58:36;;;;;;;;;;;;;;;;;;5135005;27;20298;-88
2023/02/25 04:01:03;;;;;;;;;;;;;;;;;;5116566;27;19923;-88
2023/02/25 04:03:29;;;;;;;;;;;;;;;;;;5135040;28;20363;-89
2023/02/25 04:05:54;;;;;;;;;;;;;;;;;;5116833;28;19922;-88
2023/02/25 04:08:20;;;;;;;;;;;;;;;;;;5116366;28;19923;-88
2023/02/25 04:10:46;;;;;;;;;;;;;;;;;;5134975;28;19916;-88
2023/02/25 04:13:13;;;;;;;;;;;;;;;;;;5116473;28;20043;-90
2023/02/25 04:15:39;;;;;;;;;;;;;;;;;;5116487;28;19931;-88
2023/02/25 04:18:04;;;;;;;;;;;;;;;;;;5135233;28;19919;-88
2023/02/25 04:20:30;;;;;;;;;;;;;;;;;;5134971;28;20010;-89
2023/02/25 04:22:55;;;;;;;;;;;;;;;;;;5134945;28;19922;-89
2023/02/25 04:25:21;;;;;;;;;;;;;;;;;;5134926;28;20001;-88
2023/02/25 04:27:46;;;;;;;;;;;;;;;;;;5135429;28;20273;-88
2023/02/25 04:30:12;;;;;;;;;;;;;;;;;;5135248;28;19915;-90
2023/02/25 04:32:38;;;;;;;;;;;;;;;;;;5156731;28;19923;-89
2023/02/25 04:35:06;;;;;;;;;;;;;;;;;;5140767;28;20024;-88
2023/02/25 04:37:31;;;;;;;;;;;;;;;;;;5157710;28;19903;-87
2023/02/25 04:39:57;;;;;;;;;;;;;;;;;;5160216;27;19910;-88
2023/02/25 04:42:22;;;;;;;;;;;;;;;;;;5121938;28;19916;-88
2023/02/25 04:44:48;;;;;;;;;;;;;;;;;;5135271;28;20330;-88
2023/02/25 04:47:13;;;;;;;;;;;;;;;;;;5116486;28;19930;-88
2023/02/25 04:49:43;;;;;;;;;;;;;;;;;;5134615;28;19969;-89
2023/02/25 04:52:10;;;;;;;;;;;;;;;;;;5134796;28;20007;-89
2023/02/25 04:54:35;;;;;;;;;;;;;;;;;;5134655;28;20362;-88
2023/02/25 04:57:01;;;;;;;;;;;;;;;;;;5135211;28;20005;-89
2023/02/25 04:59:26;;;;;;;;;;;;;;;;;;5134489;28;19976;-89
2023/02/25 05:01:51;;;;;;;;;;;;;;;;;;5134622;28;19961;-88
2023/02/25 05:04:17;;;;;;;;;;;;;;;;;;5134512;28;19945;-88
2023/02/25 05:06:42;;;;;;;;;;;;;;;;;;5116597;27;19955;-88
2023/02/25 05:09:07;;;;;;;;;;;;;;;;;;5138170;27;19915;-89
2023/02/25 05:11:33;;;;;;;;;;;;;;;;;;5138439;27;19936;-89
2023/02/25 05:13:58;;;;;;;;;;;;;;;;;;5138832;27;19926;-89
2023/02/25 05:16:24;;;;;;;;;;;;;;;;;;5119641;27;19927;-90
2023/02/25 05:18:50;;;;;;;;;;;;;;;;;;5137994;27;19955;-89
2023/02/25 05:21:17;;;;;;;;;;;;;;;;;;5137999;27;19916;-88
2023/02/25 05:23:43;;;;;;;;;;;;;;;;;;5119458;27;19916;-89
2023/02/25 05:26:09;;;;;;;;;;;;;;;;;;5137786;27;19950;-88
2023/02/25 05:28:35;;;;;;;;;;;;;;;;;;5137968;27;19972;-88
2023/02/25 05:31:07;;;;;;;;;;;;;;;;;;5138216;27;19919;-88
2023/02/25 05:33:32;;;;;;;;;;;;;;;;;;5119280;27;19915;-89
2023/02/25 05:35:58;;;;;;;;;;;;;;;;;;5119273;27;20014;-89
2023/02/25 05:38:23;;;;;;;;;;;;;;;;;;5119251;27;19915;-89
2023/02/25 05:40:48;;;;;;;;;;;;;;;;;;5119110;27;20041;-90
2023/02/25 05:43:14;;;;;;;;;;;;;;;;;;5137792;27;19961;-88
2023/02/25 05:45:39;;;;;;;;;;;;;;;;;;5137775;27;19916;-88
2023/02/25 05:48:05;;;;;;;;;;;;;;;;;;5118805;27;19920;-90
2023/02/25 05:50:33;;;;;;;;;;;;;;;;;;5137356;27;19922;-89
2023/02/25 05:52:59;;;;;;;;;;;;;;;;;;5137313;27;19968;-89
2023/02/25 05:55:25;;;;;;;;;;;;;;;;;;5118908;27;20327;-89
2023/02/25 05:57:51;;;;;;;;;;;;;;;;;;5118785;27;20022;-89
2023/02/25 06:00:20;;;;;;;;;;;;;;;;;;5118653;27;19969;-90
2023/02/25 06:02:45;;;;;;;;;;;;;;;;;;5137531;27;19923;-89
2023/02/25 06:05:11;;;;;;;;;;;;;;;;;;5137243;27;19915;-89
2023/02/25 06:07:36;;;;;;;;;;;;;;;;;;5118487;27;19955;-89
2023/02/25 06:10:02;;;;;;;;;;;;;;;;;;5136982;27;20006;-89
2023/02/25 06:12:28;;;;;;;;;;;;;;;;;;5118595;27;19956;-89
2023/02/25 06:14:54;;;;;;;;;;;;;;;;;;5136874;27;20300;-88
2023/02/25 06:17:19;;;;;;;;;;;;;;;;;;5136904;27;19960;-88
2023/02/25 06:19:45;;;;;;;;;;;;;;;;;;5136454;27;19967;-89
2023/02/25 06:22:10;;;;;;;;;;;;;;;;;;5118401;27;19915;-87
2023/02/25 06:24:35;;;;;;;;;;;;;;;;;;5136932;27;19915;-91
2023/02/25 06:27:01;;;;;;;;;;;;;;;;;;5118450;27;19996;-92
2023/02/25 06:29:27;;;;;;;;;;;;;;;;;;5136581;27;19916;-92
2023/02/25 06:31:53;;;;;;;;;;;;;;;;;;5136853;27;20369;-90
2023/02/25 06:34:19;;;;;;;;;;;;;;;;;;5136486;27;19960;-91
2023/02/25 06:36:45;;;;;;;;;;;;;;;;;;5136930;27;19923;-91
2023/02/25 06:39:10;;;;;;;;;;;;;;;;;;5137147;27;19917;-92
2023/02/25 06:41:36;;;;;;;;;;;;;;;;;;5136560;27;19923;-90
2023/02/25 06:44:03;;;;;;;;;;;;;;;;;;5118248;27;20386;-91
2023/02/25 06:46:28;;;;;;;;;;;;;;;;;;5114503;28;19972;-91
2023/02/25 06:48:54;;;;;;;;;;;;;;;;;;5114816;28;19923;-91
2023/02/25 06:51:20;;;;;;;;;;;;;;;;;;5114632;28;19916;-90
2023/02/25 06:53:46;;;;;;;;;;;;;;;;;;5116228;28;19923;-91
2023/02/25 06:56:13;;;;;;;;;;;;;;;;;;5116946;28;19923;-91
2023/02/25 06:58:38;;;;;;;;;;;;;;;;;;5114219;28;19939;-92
2023/02/25 07:01:05;;;;;;;;;;;;;;;;;;5114730;28;20383;-89
2023/02/25 07:03:30;;;;;;;;;;;;;;;;;;5115793;28;19915;-87
2023/02/25 07:05:56;;;;;;;;;;;;;;;;;;5115701;28;19916;-88
2023/02/25 07:08:21;;;;;;;;;;;;;;;;;;5113853;28;20363;-89
2023/02/25 07:10:46;;;;;;;;;;;;;;;;;;5115114;28;19947;-89
2023/02/25 07:13:12;;;;;;;;;;;;;;;;;;5115222;28;19916;-89
2023/02/25 07:15:37;;;;;;;;;;;;;;;;;;5115223;28;19915;-89
2023/02/25 07:18:03;;;;;;;;;;;;;;;;;;5115135;28;20353;-89
2023/02/25 07:20:28;;;;;;;;;;;;;;;;;;5114977;28;19930;-89
2023/02/25 07:22:54;;;;;;;;;;;;;;;;;;5115141;28;19980;-90
2023/02/25 07:25:19;;;;;;;;;;;;;;;;;;5115032;28;19916;-89
2023/02/25 07:27:45;;;;;;;;;;;;;;;;;;5114593;28;19922;-91
2023/02/25 07:30:11;;;;;;;;;;;;;;;;;;5114897;28;19924;-90
2023/02/25 07:32:37;;;;;;;;;;;;;;;;;;5115347;28;19916;-89
2023/02/25 07:35:03;;;;;;;;;;;;;;;;;;5115065;28;19916;-89
2023/02/25 07:37:29;;;;;;;;;;;;;;;;;;5115209;28;19915;-89
2023/02/25 07:39:54;;;;;;;;;;;;;;;;;;5113268;28;19926;-90
2023/02/25 07:42:19;;;;;;;;;;;;;;;;;;5115029;28;19920;-90
2023/02/25 07:44:45;;;;;;;;;;;;;;;;;;5113569;28;20282;-90
2023/02/25 07:47:10;;;;;;;;;;;;;;;;;;5113285;28;19946;-90
2023/02/25 07:49:36;;;;;;;;;;;;;;;;;;5113300;28;19916;-89
2023/02/25 07:52:03;;;;;;;;;;;;;;;;;;5113220;28;21436;-91
2023/02/25 07:54:29;;;;;;;;;;;;;;;;;;5114867;28;19922;-90
2023/02/25 07:56:54;;;;;;;;;;;;;;;;;;5114836;28;20014;-92
2023/02/25 07:59:21;;;;;;;;;;;;;;;;;;5114948;28;20378;-89
2023/02/25 08:01:46;;;;;;;;;;;;;;;;;;5113324;28;19951;-91
2023/02/25 08:04:12;;;;;;;;;;;;;;;;;;5113254;28;19963;-90
2023/02/25 08:06:38;;;;;;;;;;;;;;;;;;5114809;28;19916;-90
2023/02/25 08:09:05;;;;;;;;;;;;;;;;;;5114692;28;19960;-90
2023/02/25 08:11:31;;;;;;;;;;;;;;;;;;5113128;28;20367;-91
2023/02/25 08:13:58;;;;;;;;;;;;;;;;;;5113306;28;20010;-91
2023/02/25 08:16:23;;;;;;;;;;;;;;;;;;5114409;28;19961;-90
2023/02/25 08:18:49;;;;;;;;;;;;;;;;;;5113160;28;19955;-90
2023/02/25 08:21:16;;;;;;;;;;;;;;;;;;5113061;28;19920;-87
2023/02/25 08:29:37;;;;;;;;;;;;;;;;;;4922579;29;19927;-87
2023/02/25 08:32:06;;;;;;;;;;;;;;;;;;4905187;29;20331;-89
2023/02/25 08:34:38;;;;;;;;;;;;;;;;;;4902863;29;19923;-90
2023/02/25 08:37:04;;;;;;;;;;;;;;;;;;4902345;29;20385;-89
2023/02/25 08:39:44;;;;;;;;;;;;;;;;;;4915858;29;20010;-89
2023/02/25 08:42:17;;;;;;;;;;;;;;;;;;4904050;29;19919;-88
2023/02/25 08:44:43;;;;;;;;;;;;;;;;;;4906892;29;19919;-88
2023/02/25 08:47:12;;;;;;;;;;;;;;;;;;4904751;29;19919;-88
2023/02/25 08:49:46;;;;;;;;;;;;;;;;;;4903286;29;19915;-88
2023/02/25 08:52:12;;;;;;;;;;;;;;;;;;4905290;29;19974;-88
2023/02/25 08:57:54;;;;;;;;;;;;;;;;;;4922556;29;19969;-86
2023/02/25 09:00:56;;;;;;;;;;;;;;;;;;4921309;29;19923;-85
2023/02/25 09:03:22;;;;;;;;;;;;;;;;;;4883568;29;20019;-84
2023/02/25 09:05:56;;;;;;;;;;;;;;;;;;4917758;28;19953;-86
2023/02/25 09:08:21;;;;;;;;;;;;;;;;;;5000035;28;19918;-86
2023/02/25 09:10:47;;;;;;;;;;;;;;;;;;4982370;28;20253;-87
2023/02/25 09:13:16;;;;;;;;;;;;;;;;;;4982645;28;20336;-87
2023/02/25 09:16:03;;;;;;;;;;;;;;;;;;5000728;28;19973;-88
2023/02/25 09:18:36;;;;;;;;;;;;;;;;;;4999782;28;19948;-86
2023/02/25 09:21:31;;;;;;;;;;;;;;;;;;;;;
2023/02/25 09:24:32;;;;;;;;;;;;;;;;;;;;;
2023/02/25 09:27:16;;;;;;;;;;;;;;;;;;5002661;28;20004;-88
2023/02/25 09:33:25;;;;;;;;;;;;;;;;;;4963783;28;20384;-90
2023/02/25 10:14:51;;;;;;;;;;;;;;;;;;1304304;26;20009;-86
2023/02/25 10:17:45;;;;;;;;;;;;;;;;;;;;;
2023/02/25 10:20:29;;;;;;;;;;;;;;;;;;5015976;28;19922;-86
2023/02/25 10:26:38;;;;;;;;;;;;;;;;;;;;;
2023/02/25 10:32:47;;;;;;;;;;;;;;;;;;;;;
2023/02/25 10:54:26;;;;;;;;;;;;;;;;;;4734049;30;20413;-86
2023/02/25 10:57:29;;;;;;;;;;;;;;;;;;4733877;30;19969;-85
2023/02/25 11:00:03;;;;;;;;;;;;;;;;;;4748485;30;19976;-87
2023/02/25 11:02:30;;;;;;;;;;;;;;;;;;4735614;30;19923;-86
2023/02/25 11:04:57;;;;;;;;;;;;;;;;;;4754934;30;20488;-85
2023/02/25 11:07:24;;;;;;;;;;;;;;;;;;4774832;29;19926;-88
2023/02/25 11:10:04;;;;;;;;;;;;;;;;;;4809233;29;20235;-87
2023/02/25 11:12:30;;;;;;;;;;;;;;;;;;4810442;29;19928;-88
2023/02/25 11:14:56;;;;;;;;;;;;;;;;;;4820076;29;19924;-86
2023/02/25 11:17:21;;;;;;;;;;;;;;;;;;4879804;29;19927;-85
2023/02/25 11:19:57;;;;;;;;;;;;;;;;;;4903692;29;19930;-86
2023/02/25 11:22:27;;;;;;;;;;;;;;;;;;4992156;28;19921;-88
2023/02/25 11:24:58;;;;;;;;;;;;;;;;;;5004618;28;20007;-88
2023/02/25 11:27:35;;;;;;;;;;;;;;;;;;5001423;28;19917;-85
2023/02/25 11:30:06;;;;;;;;;;;;;;;;;;5002035;28;20418;-84
2023/02/25 11:32:32;;;;;;;;;;;;;;;;;;4999609;28;19917;-86
2023/02/25 11:35:08;;;;;;;;;;;;;;;;;;4999216;28;20369;-86
2023/02/25 11:37:39;;;;;;;;;;;;;;;;;;5015635;28;20011;-87
2023/02/25 11:40:22;;;;;;;;;;;;;;;;;;5016569;28;19940;-86
2023/02/25 11:43:00;;;;;;;;;;;;;;;;;;5017397;28;19917;-86
2023/02/25 11:45:28;;;;;;;;;;;;;;;;;;5018023;28;20011;-85
2023/02/25 11:47:53;;;;;;;;;;;;;;;;;;5004556;28;19925;-86
2023/02/25 11:50:28;;;;;;;;;;;;;;;;;;5017065;28;19944;-86
2023/02/25 11:53:02;;;;;;;;;;;;;;;;;;5017178;28;20020;-86
2023/02/25 11:55:36;;;;;;;;;;;;;;;;;;5000425;28;19917;-88
2023/02/25 11:58:05;;;;;;;;;;;;;;;;;;4999210;28;19921;-86
2023/02/25 12:00:36;;;;;;;;;;;;;;;;;;4999420;28;19917;-86
2023/02/25 12:03:14;;;;;;;;;;;;;;;;;;5017715;28;19940;-88
2023/02/25 12:05:49;;;;;;;;;;;;;;;;;;5001732;28;19926;-88
2023/02/25 12:08:48;;;;;;;;;;;;;;;;;;5017723;28;19927;-87
2023/02/25 12:11:20;;;;;;;;;;;;;;;;;;4957063;28;20430;-85
2023/02/25 12:14:04;;;;;;;;;;;;;;;;;;4998027;28;20019;-85
2023/02/25 12:16:30;;;;;;;;;;;;;;;;;;4996672;28;19925;-86
2023/02/25 12:19:14;;;;;;;;;;;;;;;;;;5000529;28;19928;-86
2023/02/25 12:21:48;;;;;;;;;;;;;;;;;;5005206;28;19921;-85
2023/02/25 12:24:39;;;;;;;;;;;;;;;;;;5003081;28;19972;-86
2023/02/25 12:27:23;;;;;;;;;;;;;;;;;;5002195;28;19933;-88
2023/02/25 12:29:58;;;;;;;;;;;;;;;;;;5002167;28;20026;-85
2023/02/25 12:32:23;;;;;;;;;;;;;;;;;;5000817;28;19918;-86
2023/02/25 12:35:07;;;;;;;;;;;;;;;;;;5001727;28;19945;-86
2023/02/25 12:37:36;;;;;;;;;;;;;;;;;;5001624;28;19918;-86
2023/02/25 12:40:18;;;;;;;;;;;;;;;;;;5001115;28;19922;-86
2023/02/25 12:42:58;;;;;;;;;;;;;;;;;;5001883;28;19917;-88
2023/02/25 12:45:39;;;;;;;;;;;;;;;;;;5004639;28;19924;-89
2023/02/25 12:48:12;;;;;;;;;;;;;;;;;;5002578;28;19918;-86
2023/02/25 12:50:37;;;;;;;;;;;;;;;;;;5000522;28;19918;-87
2023/02/25 12:53:27;;;;;;;;;;;;;;;;;;4999755;28;19924;-86
2023/02/25 12:55:59;;;;;;;;;;;;;;;;;;4999808;28;20061;-87
2023/02/25 12:58:32;;;;;;;;;;;;;;;;;;4999333;28;19917;-84
2023/02/25 13:01:16;;;;;;;;;;;;;;;;;;4998478;28;19918;-85
2023/02/25 13:03:55;;;;;;;;;;;;;;;;;;5000170;28;19961;-88
2023/02/25 13:06:23;;;;;;;;;;;;;;;;;;5000450;28;19941;-87
2023/02/25 13:08:52;;;;;;;;;;;;;;;;;;5000220;28;19922;-87
2023/02/25 13:11:26;;;;;;;;;;;;;;;;;;4998189;28;19914;-85
2023/02/25 13:14:07;;;;;;;;;;;;;;;;;;4999178;28;19918;-86
2023/02/25 13:16:52;;;;;;;;;;;;;;;;;;5014528;28;20328;-87
2023/02/25 13:19:39;;;;;;;;;;;;;;;;;;5001007;28;19917;-87
2023/02/25 13:22:07;;;;;;;;;;;;;;;;;;5001103;28;19960;-87
2023/02/25 13:24:42;;;;;;;;;;;;;;;;;;5001067;28;19918;-87
2023/02/25 13:27:26;;;;;;;;;;;;;;;;;;5001754;28;20424;-87
2023/02/25 13:30:05;;;;;;;;;;;;;;;;;;5019862;28;19921;-87
2023/02/25 13:32:56;;;;;;;;;;;;;;;;;;5000358;28;19922;-86
2023/02/25 13:35:31;;;;;;;;;;;;;;;;;;4999725;28;19965;-86
2023/02/25 13:38:00;;;;;;;;;;;;;;;;;;5001432;28;20333;-86
2023/02/25 13:40:26;;;;;;;;;;;;;;;;;;5019191;28;19921;-85
2023/02/25 13:42:55;;;;;;;;;;;;;;;;;;5002372;28;20012;-87
2023/02/25 13:45:37;;;;;;;;;;;;;;;;;;5001675;28;19976;-86
2023/02/25 13:48:31;;;;;;;;;;;;;;;;;;5002188;28;19922;-90
2023/02/25 13:51:18;;;;;;;;;;;;;;;;;;5022506;28;19979;-85
2023/02/25 13:54:02;;;;;;;;;;;;;;;;;;5019761;28;19972;-85
2023/02/25 13:56:57;;;;;;;;;;;;;;;;;;;;;
2023/02/25 13:59:46;;;;;;;;;;;;;;;;;;5017745;28;19924;-88
2023/02/25 14:02:32;;;;;;;;;;;;;;;;;;5003122;28;19933;-88
2023/02/25 14:05:20;;;;;;;;;;;;;;;;;;5001066;28;19921;-86
2023/02/25 14:08:10;;;;;;;;;;;;;;;;;;5001212;28;19935;-87
2023/02/25 14:10:57;;;;;;;;;;;;;;;;;;4999884;28;19917;-87
2023/02/25 14:16:49;;;;;;;;;;;;;;;;;;4996571;28;19929;-89
2023/02/25 14:19:14;;;;;;;;;;;;;;;;;;5016318;28;19969;-87
2023/02/25 14:21:58;;;;;;;;;;;;;;;;;;5001126;28;20265;-88
2023/02/25 14:24:37;;;;;;;;;;;;;;;;;;5022441;28;20237;-89
2023/02/25 14:27:23;;;;;;;;;;;;;;;;;;5050875;23;19925;-88
2023/02/25 14:30:05;;;;;;;;;;;;;;;;;;4984362;28;19946;-89
2023/02/25 14:32:31;;;;;;;;;;;;;;;;;;4986977;28;20012;-87
2023/02/25 14:35:11;;;;;;;;;;;;;;;;;;5001555;28;19918;-86
2023/02/25 14:37:40;;;;;;;;;;;;;;;;;;5000924;28;19918;-87
2023/02/25 14:40:14;;;;;;;;;;;;;;;;;;5002672;28;20274;-89
2023/02/25 14:42:58;;;;;;;;;;;;;;;;;;4987504;28;19917;-87
2023/02/25 14:45:33;;;;;;;;;;;;;;;;;;5004634;28;19985;-86
2023/02/25 14:48:33;;;;;;;;;;;;;;;;;;4985409;28;19917;-85
2023/02/25 14:51:12;;;;;;;;;;;;;;;;;;4939927;29;20354;-88
2023/02/25 14:54:06;;;;;;;;;;;;;;;;;;4927176;29;19934;-89
2023/02/25 14:56:46;;;;;;;;;;;;;;;;;;4892314;29;20048;-87
2023/02/25 14:59:30;;;;;;;;;;;;;;;;;;4925801;29;19923;-86
2023/02/25 15:02:07;;;;;;;;;;;;;;;;;;4943987;29;19919;-88
2023/02/25 15:04:50;;;;;;;;;;;;;;;;;;4923267;29;19958;-87
2023/02/25 15:07:21;;;;;;;;;;;;;;;;;;4929876;29;20010;-87
2023/02/25 15:10:06;;;;;;;;;;;;;;;;;;4943493;29;19915;-88
2023/02/25 15:12:43;;;;;;;;;;;;;;;;;;4958339;29;19952;-86
2023/02/25 15:15:27;;;;;;;;;;;;;;;;;;4944113;29;19922;-89
2023/02/25 15:18:15;;;;;;;;;;;;;;;;;;4919046;29;19920;-85
2023/02/25 15:20:47;;;;;;;;;;;;;;;;;;4934147;29;19989;-87
2023/02/25 15:23:40;;;;;;;;;;;;;;;;;;4924349;29;19919;-85
2023/02/25 15:26:25;;;;;;;;;;;;;;;;;;4980452;28;20388;-89
2023/02/25 15:29:14;;;;;;;;;;;;;;;;;;4998275;28;19932;-86
2023/02/25 15:31:48;;;;;;;;;;;;;;;;;;4999159;28;19965;-86
2023/02/25 15:34:33;;;;;;;;;;;;;;;;;;4998383;28;19918;-84
2023/02/25 15:37:20;;;;;;;;;;;;;;;;;;4997358;28;19965;-86
2023/02/25 15:39:52;;;;;;;;;;;;;;;;;;4982101;28;19949;-87
2023/02/25 15:42:37;;;;;;;;;;;;;;;;;;4998417;28;20016;-87
2023/02/25 15:45:21;;;;;;;;;;;;;;;;;;4998293;28;19914;-87
2023/02/25 15:47:46;;;;;;;;;;;;;;;;;;4982089;28;19960;-88
2023/02/25 15:50:32;;;;;;;;;;;;;;;;;;4998119;28;19918;-86
2023/02/25 15:52:57;;;;;;;;;;;;;;;;;;4998373;28;20365;-87
2023/02/25 15:55:40;;;;;;;;;;;;;;;;;;4998958;28;19913;-85
2023/02/25 15:58:24;;;;;;;;;;;;;;;;;;4997853;28;20414;-85
2023/02/25 16:00:52;;;;;;;;;;;;;;;;;;4998553;28;19924;-85
2023/02/25 16:03:30;;;;;;;;;;;;;;;;;;4998813;28;19925;-87
2023/02/25 16:06:10;;;;;;;;;;;;;;;;;;4982520;28;19922;-86
2023/02/25 16:08:43;;;;;;;;;;;;;;;;;;4998605;28;20099;-85
2023/02/25 16:11:17;;;;;;;;;;;;;;;;;;4997725;28;20365;-85
2023/02/25 16:13:46;;;;;;;;;;;;;;;;;;4997538;28;19964;-86
2023/02/25 16:16:15;;;;;;;;;;;;;;;;;;5000491;28;19918;-87
2023/02/25 16:18:44;;;;;;;;;;;;;;;;;;4990722;28;19944;-90
2023/02/25 16:21:28;;;;;;;;;;;;;;;;;;4992462;28;20261;-88
2023/02/25 16:23:54;;;;;;;;;;;;;;;;;;4990586;28;19960;-85
2023/02/25 16:26:25;;;;;;;;;;;;;;;;;;4983185;28;19922;-88
2023/02/25 16:28:57;;;;;;;;;;;;;;;;;;4989726;28;19922;-88
2023/02/25 16:31:25;;;;;;;;;;;;;;;;;;4991579;28;19921;-88
2023/02/25 16:33:52;;;;;;;;;;;;;;;;;;4981427;28;19917;-87
2023/02/25 16:36:43;;;;;;;;;;;;;;;;;;4979845;28;20388;-87
2023/02/25 16:39:19;;;;;;;;;;;;;;;;;;4982935;28;19979;-87
2023/02/25 16:41:45;;;;;;;;;;;;;;;;;;4994946;28;19918;-85
2023/02/25 16:44:18;;;;;;;;;;;;;;;;;;4995421;28;20373;-87
2023/02/25 16:46:47;;;;;;;;;;;;;;;;;;4988836;28;19922;-87
2023/02/25 16:49:18;;;;;;;;;;;;;;;;;;4967744;28;20546;-85
2023/02/25 16:51:44;;;;;;;;;;;;;;;;;;4989397;28;19930;-87
2023/02/25 16:54:12;;;;;;;;;;;;;;;;;;4992430;28;20283;-86
2023/02/25 16:56:38;;;;;;;;;;;;;;;;;;4990901;28;19934;-89
2023/02/25 16:59:05;;;;;;;;;;;;;;;;;;4993862;28;19925;-87
2023/02/25 17:01:32;;;;;;;;;;;;;;;;;;4991406;28;20016;-88
2023/02/25 17:04:18;;;;;;;;;;;;;;;;;;4993084;28;20016;-86
2023/02/25 17:07:03;;;;;;;;;;;;;;;;;;4992661;28;19922;-87
2023/02/25 17:09:29;;;;;;;;;;;;;;;;;;4989220;28;19961;-85
2023/02/25 17:11:54;;;;;;;;;;;;;;;;;;4999366;28;19964;-88
2023/02/25 17:14:20;;;;;;;;;;;;;;;;;;4997702;28;19924;-88
2023/02/25 17:16:46;;;;;;;;;;;;;;;;;;4997235;28;20332;-86
2023/02/25 17:19:14;;;;;;;;;;;;;;;;;;4996076;28;20282;-88
2023/02/25 17:21:43;;;;;;;;;;;;;;;;;;5002501;28;19918;-87
2023/02/25 17:24:12;;;;;;;;;;;;;;;;;;5004315;28;19957;-87
2023/02/25 17:26:46;;;;;;;;;;;;;;;;;;5017140;28;19909;-87
2023/02/25 17:29:12;;;;;;;;;;;;;;;;;;5004877;28;19920;-86
2023/02/25 17:31:50;;;;;;;;;;;;;;;;;;4991434;28;19929;-87
2023/02/25 17:34:17;;;;;;;;;;;;;;;;;;4980588;28;19913;-86
2023/02/25 17:36:43;;;;;;;;;;;;;;;;;;4979455;28;20392;-87
2023/02/25 17:39:14;;;;;;;;;;;;;;;;;;4976517;28;19968;-88
2023/02/25 17:41:43;;;;;;;;;;;;;;;;;;4995663;28;19983;-87
2023/02/25 17:44:09;;;;;;;;;;;;;;;;;;4998372;28;19920;-87
2023/02/25 17:46:37;;;;;;;;;;;;;;;;;;4982648;28;19922;-87
2023/02/25 17:49:21;;;;;;;;;;;;;;;;;;5000689;28;19918;-88
2023/02/25 17:51:51;;;;;;;;;;;;;;;;;;4983254;28;19922;-88
2023/02/25 17:54:18;;;;;;;;;;;;;;;;;;5001046;28;19918;-87
2023/02/25 17:56:44;;;;;;;;;;;;;;;;;;5003754;28;19922;-87
2023/02/25 17:59:12;;;;;;;;;;;;;;;;;;4993896;28;19980;-88
2023/02/25 18:01:46;;;;;;;;;;;;;;;;;;4977805;28;19925;-85
2023/02/25 18:04:27;;;;;;;;;;;;;;;;;;4994035;28;19917;-88
2023/02/25 18:06:54;;;;;;;;;;;;;;;;;;4996713;28;20040;-86
2023/02/25 18:09:26;;;;;;;;;;;;;;;;;;4981732;28;19937;-86
2023/02/25 18:11:54;;;;;;;;;;;;;;;;;;4998176;28;19981;-86
2023/02/25 18:14:19;;;;;;;;;;;;;;;;;;5000273;28;19921;-87
2023/02/25 18:16:45;;;;;;;;;;;;;;;;;;5001881;28;20261;-89
2023/02/25 18:19:21;;;;;;;;;;;;;;;;;;5005256;28;19917;-87
2023/02/25 18:21:47;;;;;;;;;;;;;;;;;;4987437;28;19926;-88
2023/02/25 18:24:23;;;;;;;;;;;;;;;;;;5003235;28;19925;-87
2023/02/25 18:27:03;;;;;;;;;;;;;;;;;;4971091;28;19968;-88
2023/02/25 18:29:29;;;;;;;;;;;;;;;;;;4999112;28;19953;-88
2023/02/25 18:31:55;;;;;;;;;;;;;;;;;;4979470;28;19991;-88
2023/02/25 18:34:20;;;;;;;;;;;;;;;;;;4974801;28;20412;-89
2023/02/25 18:36:45;;;;;;;;;;;;;;;;;;4990455;28;19922;-88